sensor_id;sensor_type;location;lat;lon;timestamp;temperature;humidity
7399;DHT22;3740;50.700;7.184;2022-11-04T00:01:23;12.70;99.90
7399;DHT22;3740;50.700;7.184;2022-11-04T00:03:50;12.70;99.90
7399;DHT22;3740;50.700;7.184;2022-11-04T00:06:16;12.80;99.90
7399;DHT22;3740;50.700;7.184;2022-11-04T00:08:41;12.80;99.90
7399;DHT22;3740;50.700;7.184;2022-11-04T00:11:09;12.80;99.90
7399;DHT22;3740;50.700;7.184;2022-11-04T00:13:54;12.80;99.90
7399;DHT22;3740;50.700;7.184;2022-11-04T00:16:19;12.60;99.90
7399;DHT22;3740;50.700;7.184;2022-11-04T00:19:04;12.60;99.90
7399;DHT22;3740;50.700;7.184;2022-11-04T00:21:29;12.60;99.90
7399;DHT22;3740;50.700;7.184;2022-11-04T00:24:14;12.70;99.90
7399;DHT22;3740;50.700;7.184;2022-11-04T00:26:58;12.80;99.90
7399;DHT22;3740;50.700;7.184;2022-11-04T00:29:43;12.70;99.90
7399;DHT22;3740;50.700;7.184;2022-11-04T00:32:09;12.70;99.90
7399;DHT22;3740;50.700;7.184;2022-11-04T00:34:54;12.80;99.90
7399;DHT22;3740;50.700;7.184;2022-11-04T00:37:29;12.90;99.90
7399;DHT22;3740;50.700;7.184;2022-11-04T00:39:55;12.90;99.90
7399;DHT22;3740;50.700;7.184;2022-11-04T00:42:20;12.80;99.90
7399;DHT22;3740;50.700;7.184;2022-11-04T00:44:46;12.70;99.90
7399;DHT22;3740;50.700;7.184;2022-11-04T00:47:12;12.70;99.90
7399;DHT22;3740;50.700;7.184;2022-11-04T00:49:37;12.60;99.90
7399;DHT22;3740;50.700;7.184;2022-11-04T00:52:03;12.60;99.90
7399;DHT22;3740;50.700;7.184;2022-11-04T00:54:29;12.50;99.90
7399;DHT22;3740;50.700;7.184;2022-11-04T00:56:55;12.50;99.90
7399;DHT22;3740;50.700;7.184;2022-11-04T00:59:20;12.50;99.90
7399;DHT22;3740;50.700;7.184;2022-11-04T01:01:46;12.40;99.90
7399;DHT22;3740;50.700;7.184;2022-11-04T01:04:11;12.40;99.90
7399;DHT22;3740;50.700;7.184;2022-11-04T01:06:37;12.40;99.90
7399;DHT22;3740;50.700;7.184;2022-11-04T01:09:05;12.40;99.90
7399;DHT22;3740;50.700;7.184;2022-11-04T01:11:32;12.40;99.90
7399;DHT22;3740;50.700;7.184;2022-11-04T01:13:58;12.30;99.90
7399;DHT22;3740;50.700;7.184;2022-11-04T01:16:25;12.30;99.90
7399;DHT22;3740;50.700;7.184;2022-11-04T01:18:51;12.20;99.90
7399;DHT22;3740;50.700;7.184;2022-11-04T01:21:17;12.20;99.90
7399;DHT22;3740;50.700;7.184;2022-11-04T01:23:44;12.10;99.90
7399;DHT22;3740;50.700;7.184;2022-11-04T01:26:15;12.00;99.90
7399;DHT22;3740;50.700;7.184;2022-11-04T01:28:41;11.90;99.90
7399;DHT22;3740;50.700;7.184;2022-11-04T01:31:19;11.90;99.90
7399;DHT22;3740;50.700;7.184;2022-11-04T01:33:46;11.90;99.90
7399;DHT22;3740;50.700;7.184;2022-11-04T01:36:11;11.90;99.90
7399;DHT22;3740;50.700;7.184;2022-11-04T01:38:37;11.90;99.90
7399;DHT22;3740;50.700;7.184;2022-11-04T01:41:04;11.80;99.90
7399;DHT22;3740;50.700;7.184;2022-11-04T01:43:52;11.80;99.90
7399;DHT22;3740;50.700;7.184;2022-11-04T01:46:25;11.70;99.90
7399;DHT22;3740;50.700;7.184;2022-11-04T01:48:55;11.60;99.90
7399;DHT22;3740;50.700;7.184;2022-11-04T01:51:23;11.60;99.90
7399;DHT22;3740;50.700;7.184;2022-11-04T01:53:50;11.60;99.90
7399;DHT22;3740;50.700;7.184;2022-11-04T01:56:16;11.50;99.90
7399;DHT22;3740;50.700;7.184;2022-11-04T01:58:48;11.40;99.90
7399;DHT22;3740;50.700;7.184;2022-11-04T02:01:15;11.50;99.90
7399;DHT22;3740;50.700;7.184;2022-11-04T02:03:51;11.50;99.90
7399;DHT22;3740;50.700;7.184;2022-11-04T02:06:19;11.50;99.90
7399;DHT22;3740;50.700;7.184;2022-11-04T02:08:45;11.50;99.90
7399;DHT22;3740;50.700;7.184;2022-11-04T02:11:11;11.50;99.90
7399;DHT22;3740;50.700;7.184;2022-11-04T02:13:57;11.50;99.90
7399;DHT22;3740;50.700;7.184;2022-11-04T02:19:28;11.50;99.90
7399;DHT22;3740;50.700;7.184;2022-11-04T02:22:25;11.50;99.90
7399;DHT22;3740;50.700;7.184;2022-11-04T02:25:09;11.40;99.90
7399;DHT22;3740;50.700;7.184;2022-11-04T02:30:23;11.30;99.90
7399;DHT22;3740;50.700;7.184;2022-11-04T02:33:22;11.40;99.90
7399;DHT22;3740;50.700;7.184;2022-11-04T02:36:04;11.50;99.90
7399;DHT22;3740;50.700;7.184;2022-11-04T02:38:56;11.40;99.90
7399;DHT22;3740;50.700;7.184;2022-11-04T02:44:19;11.20;99.90
7399;DHT22;3740;50.700;7.184;2022-11-04T02:46:54;11.30;99.90
7399;DHT22;3740;50.700;7.184;2022-11-04T02:52:26;11.20;99.90
7399;DHT22;3740;50.700;7.184;2022-11-04T02:55:03;11.20;99.90
7399;DHT22;3740;50.700;7.184;2022-11-04T02:57:31;11.20;99.90
7399;DHT22;3740;50.700;7.184;2022-11-04T03:00:02;11.20;99.90
7399;DHT22;3740;50.700;7.184;2022-11-04T03:02:36;11.20;99.90
7399;DHT22;3740;50.700;7.184;2022-11-04T03:05:03;11.20;99.90
7399;DHT22;3740;50.700;7.184;2022-11-04T03:07:34;11.10;99.90
7399;DHT22;3740;50.700;7.184;2022-11-04T03:10:07;11.10;99.90
7399;DHT22;3740;50.700;7.184;2022-11-04T03:12:41;11.10;99.90
7399;DHT22;3740;50.700;7.184;2022-11-04T03:15:14;11.10;99.90
7399;DHT22;3740;50.700;7.184;2022-11-04T03:18:28;11.10;99.90
7399;DHT22;3740;50.700;7.184;2022-11-04T03:21:01;11.20;99.90
7399;DHT22;3740;50.700;7.184;2022-11-04T03:23:27;11.10;99.90
7399;DHT22;3740;50.700;7.184;2022-11-04T03:25:59;11.10;99.90
7399;DHT22;3740;50.700;7.184;2022-11-04T03:28:45;11.10;99.90
7399;DHT22;3740;50.700;7.184;2022-11-04T03:31:30;11.20;99.90
7399;DHT22;3740;50.700;7.184;2022-11-04T03:33:59;11.30;99.90
7399;DHT22;3740;50.700;7.184;2022-11-04T03:36:24;11.20;99.90
7399;DHT22;3740;50.700;7.184;2022-11-04T03:38:59;11.10;99.90
7399;DHT22;3740;50.700;7.184;2022-11-04T03:41:51;11.10;99.90
7399;DHT22;3740;50.700;7.184;2022-11-04T03:44:18;11.10;99.90
7399;DHT22;3740;50.700;7.184;2022-11-04T03:46:44;11.10;99.90
7399;DHT22;3740;50.700;7.184;2022-11-04T03:49:10;11.10;99.90
7399;DHT22;3740;50.700;7.184;2022-11-04T03:51:36;11.10;99.90
7399;DHT22;3740;50.700;7.184;2022-11-04T03:54:02;10.90;99.90
7399;DHT22;3740;50.700;7.184;2022-11-04T04:02:12;10.90;99.90
7399;DHT22;3740;50.700;7.184;2022-11-04T04:04:46;10.80;99.90
7399;DHT22;3740;50.700;7.184;2022-11-04T04:07:18;10.70;99.90
7399;DHT22;3740;50.700;7.184;2022-11-04T04:13:02;10.70;99.90
7399;DHT22;3740;50.700;7.184;2022-11-04T04:15:39;10.80;99.90
7399;DHT22;3740;50.700;7.184;2022-11-04T04:18:09;10.80;99.90
7399;DHT22;3740;50.700;7.184;2022-11-04T04:20:37;10.80;99.90
7399;DHT22;3740;50.700;7.184;2022-11-04T04:23:07;10.70;99.90
7399;DHT22;3740;50.700;7.184;2022-11-04T04:25:56;10.70;99.90
7399;DHT22;3740;50.700;7.184;2022-11-04T04:28:41;10.70;99.90
7399;DHT22;3740;50.700;7.184;2022-11-04T04:31:08;10.80;99.90
7399;DHT22;3740;50.700;7.184;2022-11-04T04:33:35;10.80;99.90
7399;DHT22;3740;50.700;7.184;2022-11-04T04:36:03;10.80;99.90
7399;DHT22;3740;50.700;7.184;2022-11-04T04:38:31;10.80;99.90
7399;DHT22;3740;50.700;7.184;2022-11-04T04:41:29;10.70;99.90
7399;DHT22;3740;50.700;7.184;2022-11-04T04:44:24;10.80;99.90
7399;DHT22;3740;50.700;7.184;2022-11-04T04:47:10;10.80;99.90
7399;DHT22;3740;50.700;7.184;2022-11-04T04:49:55;10.90;99.90
7399;DHT22;3740;50.700;7.184;2022-11-04T04:52:23;10.90;99.90
7399;DHT22;3740;50.700;7.184;2022-11-04T04:54:49;10.70;99.90
7399;DHT22;3740;50.700;7.184;2022-11-04T04:57:15;10.70;99.90
7399;DHT22;3740;50.700;7.184;2022-11-04T04:59:40;10.70;99.90
7399;DHT22;3740;50.700;7.184;2022-11-04T05:02:06;10.80;99.90
7399;DHT22;3740;50.700;7.184;2022-11-04T05:04:31;10.80;99.90
7399;DHT22;3740;50.700;7.184;2022-11-04T05:06:57;10.80;99.90
7399;DHT22;3740;50.700;7.184;2022-11-04T05:09:22;10.70;99.90
7399;DHT22;3740;50.700;7.184;2022-11-04T05:11:48;10.60;99.90
7399;DHT22;3740;50.700;7.184;2022-11-04T05:14:13;10.60;99.90
7399;DHT22;3740;50.700;7.184;2022-11-04T05:16:39;10.70;99.90
7399;DHT22;3740;50.700;7.184;2022-11-04T05:19:05;10.70;99.90
7399;DHT22;3740;50.700;7.184;2022-11-04T05:21:30;10.70;99.90
7399;DHT22;3740;50.700;7.184;2022-11-04T05:23:56;10.30;99.90
7399;DHT22;3740;50.700;7.184;2022-11-04T05:26:22;10.00;99.90
7399;DHT22;3740;50.700;7.184;2022-11-04T05:28:47;10.10;99.90
7399;DHT22;3740;50.700;7.184;2022-11-04T05:31:13;10.10;99.90
7399;DHT22;3740;50.700;7.184;2022-11-04T05:33:39;10.30;99.90
7399;DHT22;3740;50.700;7.184;2022-11-04T05:36:09;10.30;99.90
7399;DHT22;3740;50.700;7.184;2022-11-04T05:38:35;10.10;99.90
7399;DHT22;3740;50.700;7.184;2022-11-04T05:41:01;9.90;99.90
7399;DHT22;3740;50.700;7.184;2022-11-04T05:43:27;9.80;99.90
7399;DHT22;3740;50.700;7.184;2022-11-04T05:45:53;9.70;99.90
7399;DHT22;3740;50.700;7.184;2022-11-04T05:48:19;9.60;99.90
7399;DHT22;3740;50.700;7.184;2022-11-04T05:50:45;9.60;99.90
7399;DHT22;3740;50.700;7.184;2022-11-04T05:53:10;9.40;99.90
7399;DHT22;3740;50.700;7.184;2022-11-04T05:55:36;9.50;99.90
7399;DHT22;3740;50.700;7.184;2022-11-04T05:58:02;9.70;99.90
7399;DHT22;3740;50.700;7.184;2022-11-04T06:00:27;9.90;99.90
7399;DHT22;3740;50.700;7.184;2022-11-04T06:02:53;10.00;99.90
7399;DHT22;3740;50.700;7.184;2022-11-04T06:05:22;10.10;99.90
7399;DHT22;3740;50.700;7.184;2022-11-04T06:07:49;10.00;99.90
7399;DHT22;3740;50.700;7.184;2022-11-04T06:10:19;9.90;99.90
7399;DHT22;3740;50.700;7.184;2022-11-04T06:12:44;9.90;99.90
7399;DHT22;3740;50.700;7.184;2022-11-04T06:15:10;10.00;99.90
7399;DHT22;3740;50.700;7.184;2022-11-04T06:17:36;10.00;99.90
7399;DHT22;3740;50.700;7.184;2022-11-04T06:20:05;10.10;99.90
7399;DHT22;3740;50.700;7.184;2022-11-04T06:22:31;10.00;99.90
7399;DHT22;3740;50.700;7.184;2022-11-04T06:24:57;9.80;99.90
7399;DHT22;3740;50.700;7.184;2022-11-04T06:27:23;9.80;99.90
7399;DHT22;3740;50.700;7.184;2022-11-04T06:29:48;9.80;99.90
7399;DHT22;3740;50.700;7.184;2022-11-04T06:32:16;9.90;99.90
7399;DHT22;3740;50.700;7.184;2022-11-04T06:34:42;9.90;99.90
7399;DHT22;3740;50.700;7.184;2022-11-04T06:37:09;9.80;99.90
7399;DHT22;3740;50.700;7.184;2022-11-04T06:39:35;9.60;99.90
7399;DHT22;3740;50.700;7.184;2022-11-04T06:42:01;9.70;99.90
7399;DHT22;3740;50.700;7.184;2022-11-04T06:44:27;9.80;99.90
7399;DHT22;3740;50.700;7.184;2022-11-04T06:46:52;9.90;99.90
7399;DHT22;3740;50.700;7.184;2022-11-04T06:49:20;9.80;99.90
7399;DHT22;3740;50.700;7.184;2022-11-04T06:51:47;9.70;99.90
7399;DHT22;3740;50.700;7.184;2022-11-04T06:54:15;9.70;99.90
7399;DHT22;3740;50.700;7.184;2022-11-04T06:56:41;9.80;99.90
7399;DHT22;3740;50.700;7.184;2022-11-04T06:59:07;9.90;99.90
7399;DHT22;3740;50.700;7.184;2022-11-04T07:01:35;10.10;99.90
7399;DHT22;3740;50.700;7.184;2022-11-04T07:04:02;10.10;99.90
7399;DHT22;3740;50.700;7.184;2022-11-04T07:06:30;10.10;99.90
7399;DHT22;3740;50.700;7.184;2022-11-04T07:08:57;10.00;99.90
7399;DHT22;3740;50.700;7.184;2022-11-04T07:11:25;10.20;99.90
7399;DHT22;3740;50.700;7.184;2022-11-04T07:13:51;10.30;99.90
7399;DHT22;3740;50.700;7.184;2022-11-04T07:16:17;10.40;99.90
7399;DHT22;3740;50.700;7.184;2022-11-04T07:18:43;10.50;99.90
7399;DHT22;3740;50.700;7.184;2022-11-04T07:21:10;10.50;99.90
7399;DHT22;3740;50.700;7.184;2022-11-04T07:23:36;10.40;99.90
7399;DHT22;3740;50.700;7.184;2022-11-04T07:26:03;10.40;99.90
7399;DHT22;3740;50.700;7.184;2022-11-04T07:28:29;10.40;99.90
7399;DHT22;3740;50.700;7.184;2022-11-04T07:30:59;10.50;99.90
7399;DHT22;3740;50.700;7.184;2022-11-04T07:33:25;10.60;99.90
7399;DHT22;3740;50.700;7.184;2022-11-04T07:35:52;10.80;99.90
7399;DHT22;3740;50.700;7.184;2022-11-04T07:38:19;11.00;99.90
7399;DHT22;3740;50.700;7.184;2022-11-04T07:40:45;11.10;99.90
7399;DHT22;3740;50.700;7.184;2022-11-04T07:43:11;11.20;99.90
7399;DHT22;3740;50.700;7.184;2022-11-04T07:45:36;11.30;99.90
7399;DHT22;3740;50.700;7.184;2022-11-04T07:48:02;11.40;99.90
7399;DHT22;3740;50.700;7.184;2022-11-04T07:50:28;11.40;99.90
7399;DHT22;3740;50.700;7.184;2022-11-04T07:52:55;11.50;99.90
7399;DHT22;3740;50.700;7.184;2022-11-04T07:55:21;11.60;99.90
7399;DHT22;3740;50.700;7.184;2022-11-04T07:57:46;11.70;99.90
7399;DHT22;3740;50.700;7.184;2022-11-04T08:00:14;11.70;99.90
7399;DHT22;3740;50.700;7.184;2022-11-04T08:02:43;11.70;99.90
7399;DHT22;3740;50.700;7.184;2022-11-04T08:05:12;11.70;99.90
7399;DHT22;3740;50.700;7.184;2022-11-04T08:07:38;11.80;99.90
7399;DHT22;3740;50.700;7.184;2022-11-04T08:10:04;12.00;99.90
7399;DHT22;3740;50.700;7.184;2022-11-04T08:12:30;12.00;99.90
7399;DHT22;3740;50.700;7.184;2022-11-04T08:14:57;12.10;99.90
7399;DHT22;3740;50.700;7.184;2022-11-04T08:17:23;12.20;99.90
7399;DHT22;3740;50.700;7.184;2022-11-04T08:19:48;12.20;99.90
7399;DHT22;3740;50.700;7.184;2022-11-04T08:22:14;12.20;99.90
7399;DHT22;3740;50.700;7.184;2022-11-04T08:24:40;12.30;99.90
7399;DHT22;3740;50.700;7.184;2022-11-04T08:27:06;12.20;99.90
7399;DHT22;3740;50.700;7.184;2022-11-04T08:29:33;12.30;99.90
7399;DHT22;3740;50.700;7.184;2022-11-04T08:31:58;12.20;99.90
7399;DHT22;3740;50.700;7.184;2022-11-04T08:34:24;12.20;99.90
7399;DHT22;3740;50.700;7.184;2022-11-04T08:36:50;12.20;99.90
7399;DHT22;3740;50.700;7.184;2022-11-04T08:39:17;12.20;99.90
7399;DHT22;3740;50.700;7.184;2022-11-04T08:41:43;12.20;99.90
7399;DHT22;3740;50.700;7.184;2022-11-04T08:44:13;12.30;99.90
7399;DHT22;3740;50.700;7.184;2022-11-04T08:46:41;12.30;99.90
7399;DHT22;3740;50.700;7.184;2022-11-04T08:49:07;12.30;99.90
7399;DHT22;3740;50.700;7.184;2022-11-04T08:51:34;12.30;99.90
7399;DHT22;3740;50.700;7.184;2022-11-04T08:54:00;12.30;99.90
7399;DHT22;3740;50.700;7.184;2022-11-04T08:56:29;12.40;99.90
7399;DHT22;3740;50.700;7.184;2022-11-04T08:58:56;12.40;99.90
7399;DHT22;3740;50.700;7.184;2022-11-04T09:01:23;12.40;99.90
7399;DHT22;3740;50.700;7.184;2022-11-04T09:03:49;12.50;99.90
7399;DHT22;3740;50.700;7.184;2022-11-04T09:06:23;12.60;99.90
7399;DHT22;3740;50.700;7.184;2022-11-04T09:08:50;12.60;99.90
7399;DHT22;3740;50.700;7.184;2022-11-04T09:11:17;12.70;99.90
7399;DHT22;3740;50.700;7.184;2022-11-04T09:13:43;12.80;99.90
7399;DHT22;3740;50.700;7.184;2022-11-04T09:16:11;12.90;99.90
7399;DHT22;3740;50.700;7.184;2022-11-04T09:18:36;13.00;99.90
7399;DHT22;3740;50.700;7.184;2022-11-04T09:21:04;12.90;99.90
7399;DHT22;3740;50.700;7.184;2022-11-04T09:23:32;13.00;99.90
7399;DHT22;3740;50.700;7.184;2022-11-04T09:26:02;13.00;99.90
7399;DHT22;3740;50.700;7.184;2022-11-04T09:28:28;13.00;99.90
7399;DHT22;3740;50.700;7.184;2022-11-04T09:30:53;13.00;99.90
7399;DHT22;3740;50.700;7.184;2022-11-04T09:33:19;13.00;99.90
7399;DHT22;3740;50.700;7.184;2022-11-04T09:35:55;13.10;99.90
7399;DHT22;3740;50.700;7.184;2022-11-04T09:38:22;13.20;99.90
7399;DHT22;3740;50.700;7.184;2022-11-04T09:40:48;13.30;99.90
7399;DHT22;3740;50.700;7.184;2022-11-04T09:46:10;13.60;99.90
7399;DHT22;3740;50.700;7.184;2022-11-04T09:48:47;14.20;99.90
7399;DHT22;3740;50.700;7.184;2022-11-04T09:51:16;15.00;99.90
7399;DHT22;3740;50.700;7.184;2022-11-04T09:53:44;15.70;99.90
7399;DHT22;3740;50.700;7.184;2022-11-04T09:56:22;16.10;99.90
7399;DHT22;3740;50.700;7.184;2022-11-04T09:58:49;16.10;99.90
7399;DHT22;3740;50.700;7.184;2022-11-04T10:04:05;14.90;99.90
7399;DHT22;3740;50.700;7.184;2022-11-04T10:17:54;14.10;99.90
7399;DHT22;3740;50.700;7.184;2022-11-04T10:20:53;13.90;99.90
7399;DHT22;3740;50.700;7.184;2022-11-04T10:26:14;14.00;99.90
7399;DHT22;3740;50.700;7.184;2022-11-04T10:28:44;14.00;99.90
7399;DHT22;3740;50.700;7.184;2022-11-04T10:31:16;14.00;99.90
7399;DHT22;3740;50.700;7.184;2022-11-04T10:33:47;14.10;99.90
7399;DHT22;3740;50.700;7.184;2022-11-04T10:36:16;14.20;99.90
7399;DHT22;3740;50.700;7.184;2022-11-04T10:38:53;14.20;99.90
7399;DHT22;3740;50.700;7.184;2022-11-04T10:43:50;14.50;99.90
7399;DHT22;3740;50.700;7.184;2022-11-04T10:52:09;14.40;99.90
7399;DHT22;3740;50.700;7.184;2022-11-04T10:54:48;14.50;99.90
7399;DHT22;3740;50.700;7.184;2022-11-04T10:57:23;14.50;99.90
7399;DHT22;3740;50.700;7.184;2022-11-04T11:00:00;14.50;99.90
7399;DHT22;3740;50.700;7.184;2022-11-04T11:02:43;14.50;99.90
7399;DHT22;3740;50.700;7.184;2022-11-04T11:07:43;15.20;99.90
7399;DHT22;3740;50.700;7.184;2022-11-04T11:10:20;15.40;99.90
7399;DHT22;3740;50.700;7.184;2022-11-04T11:12:57;15.80;99.90
7399;DHT22;3740;50.700;7.184;2022-11-04T11:18:15;16.60;99.90
7399;DHT22;3740;50.700;7.184;2022-11-04T11:20:50;16.60;99.90
7399;DHT22;3740;50.700;7.184;2022-11-04T11:26:09;17.10;99.90
7399;DHT22;3740;50.700;7.184;2022-11-04T11:28:37;17.40;99.90
7399;DHT22;3740;50.700;7.184;2022-11-04T11:31:09;18.40;99.90
7399;DHT22;3740;50.700;7.184;2022-11-04T11:33:54;19.80;99.90
7399;DHT22;3740;50.700;7.184;2022-11-04T11:36:41;21.20;99.90
7399;DHT22;3740;50.700;7.184;2022-11-04T11:42:01;22.40;98.90
7399;DHT22;3740;50.700;7.184;2022-11-04T11:44:37;21.70;98.50
7399;DHT22;3740;50.700;7.184;2022-11-04T11:47:36;21.90;98.30
7399;DHT22;3740;50.700;7.184;2022-11-04T11:50:14;21.60;98.20
7399;DHT22;3740;50.700;7.184;2022-11-04T11:52:43;21.60;99.60
7399;DHT22;3740;50.700;7.184;2022-11-04T12:00:31;20.70;99.90
7399;DHT22;3740;50.700;7.184;2022-11-04T12:03:31;20.90;98.60
7399;DHT22;3740;50.700;7.184;2022-11-04T12:06:37;21.00;98.80
7399;DHT22;3740;50.700;7.184;2022-11-04T12:12:00;20.20;99.90
7399;DHT22;3740;50.700;7.184;2022-11-04T12:17:28;18.70;99.90
7399;DHT22;3740;50.700;7.184;2022-11-04T12:20:21;18.20;99.90
7399;DHT22;3740;50.700;7.184;2022-11-04T12:22:56;17.60;99.90
7399;DHT22;3740;50.700;7.184;2022-11-04T12:25:56;17.30;99.90
7399;DHT22;3740;50.700;7.184;2022-11-04T12:35:02;16.10;99.90
7399;DHT22;3740;50.700;7.184;2022-11-04T12:43:55;15.10;99.90
7399;DHT22;3740;50.700;7.184;2022-11-04T12:46:39;14.80;99.90
7399;DHT22;3740;50.700;7.184;2022-11-04T12:49:11;14.70;99.90
7399;DHT22;3740;50.700;7.184;2022-11-04T13:00:13;14.10;99.90
7399;DHT22;3740;50.700;7.184;2022-11-04T13:05:41;13.90;99.90
7399;DHT22;3740;50.700;7.184;2022-11-04T13:08:44;13.90;99.90
7399;DHT22;3740;50.700;7.184;2022-11-04T13:11:11;13.90;99.90
7399;DHT22;3740;50.700;7.184;2022-11-04T13:14:14;13.80;99.90
7399;DHT22;3740;50.700;7.184;2022-11-04T13:16:45;13.70;99.90
7399;DHT22;3740;50.700;7.184;2022-11-04T13:19:38;13.80;99.90
7399;DHT22;3740;50.700;7.184;2022-11-04T13:22:08;13.80;99.90
7399;DHT22;3740;50.700;7.184;2022-11-04T13:24:38;13.80;99.90
7399;DHT22;3740;50.700;7.184;2022-11-04T13:27:17;13.80;99.90
7399;DHT22;3740;50.700;7.184;2022-11-04T13:29:46;14.00;99.90
7399;DHT22;3740;50.700;7.184;2022-11-04T13:32:34;14.00;99.90
7399;DHT22;3740;50.700;7.184;2022-11-04T13:38:04;14.10;99.90
7399;DHT22;3740;50.700;7.184;2022-11-04T13:40:51;14.20;99.90
7399;DHT22;3740;50.700;7.184;2022-11-04T13:43:33;14.20;99.90
7399;DHT22;3740;50.700;7.184;2022-11-04T13:51:45;14.20;99.90
7399;DHT22;3740;50.700;7.184;2022-11-04T13:54:30;14.30;99.90
7399;DHT22;3740;50.700;7.184;2022-11-04T13:57:07;14.40;99.90
7399;DHT22;3740;50.700;7.184;2022-11-04T13:59:34;14.40;99.90
7399;DHT22;3740;50.700;7.184;2022-11-04T14:04:44;14.40;99.90
7399;DHT22;3740;50.700;7.184;2022-11-04T14:07:11;14.70;99.90
7399;DHT22;3740;50.700;7.184;2022-11-04T14:15:02;15.40;99.90
7399;DHT22;3740;50.700;7.184;2022-11-04T14:20:20;15.50;99.90
7399;DHT22;3740;50.700;7.184;2022-11-04T14:22:49;15.70;99.90
7399;DHT22;3740;50.700;7.184;2022-11-04T14:25:24;15.70;99.90
7399;DHT22;3740;50.700;7.184;2022-11-04T14:27:53;15.70;99.90
7399;DHT22;3740;50.700;7.184;2022-11-04T14:30:46;15.60;99.90
7399;DHT22;3740;50.700;7.184;2022-11-04T14:44:41;14.80;99.90
7399;DHT22;3740;50.700;7.184;2022-11-04T14:47:28;14.60;99.90
7399;DHT22;3740;50.700;7.184;2022-11-04T14:50:04;14.50;99.90
7399;DHT22;3740;50.700;7.184;2022-11-04T14:52:51;14.20;99.90
7399;DHT22;3740;50.700;7.184;2022-11-04T14:55:28;14.10;99.90
7399;DHT22;3740;50.700;7.184;2022-11-04T14:58:12;14.00;99.90
7399;DHT22;3740;50.700;7.184;2022-11-04T15:03:17;13.60;99.90
7399;DHT22;3740;50.700;7.184;2022-11-04T15:13:35;13.80;99.90
7399;DHT22;3740;50.700;7.184;2022-11-04T15:16:06;13.70;99.90
7399;DHT22;3740;50.700;7.184;2022-11-04T15:18:36;13.70;99.90
7399;DHT22;3740;50.700;7.184;2022-11-04T15:21:03;13.80;99.90
7399;DHT22;3740;50.700;7.184;2022-11-04T15:23:34;13.80;99.90
7399;DHT22;3740;50.700;7.184;2022-11-04T15:26:01;13.80;99.90
7399;DHT22;3740;50.700;7.184;2022-11-04T15:28:44;13.80;99.90
7399;DHT22;3740;50.700;7.184;2022-11-04T15:33:42;13.60;99.90
7399;DHT22;3740;50.700;7.184;2022-11-04T15:36:15;13.70;99.90
7399;DHT22;3740;50.700;7.184;2022-11-04T15:38:46;13.70;99.90
7399;DHT22;3740;50.700;7.184;2022-11-04T15:41:13;13.70;99.90
7399;DHT22;3740;50.700;7.184;2022-11-04T15:43:58;13.70;99.90
7399;DHT22;3740;50.700;7.184;2022-11-04T15:46:27;13.40;99.90
7399;DHT22;3740;50.700;7.184;2022-11-04T15:49:04;13.40;99.90
7399;DHT22;3740;50.700;7.184;2022-11-04T15:51:37;13.60;99.90
7399;DHT22;3740;50.700;7.184;2022-11-04T15:54:14;13.60;99.90
7399;DHT22;3740;50.700;7.184;2022-11-04T15:56:47;13.70;99.90
7399;DHT22;3740;50.700;7.184;2022-11-04T15:59:27;13.50;99.90
7399;DHT22;3740;50.700;7.184;2022-11-04T16:01:53;13.40;99.90
7399;DHT22;3740;50.700;7.184;2022-11-04T16:04:24;13.40;99.90
7399;DHT22;3740;50.700;7.184;2022-11-04T16:07:17;13.50;99.90
7399;DHT22;3740;50.700;7.184;2022-11-04T16:09:54;13.60;99.90
7399;DHT22;3740;50.700;7.184;2022-11-04T16:14:56;13.40;99.90
7399;DHT22;3740;50.700;7.184;2022-11-04T16:17:22;13.50;99.90
7399;DHT22;3740;50.700;7.184;2022-11-04T16:19:59;13.50;99.90
7399;DHT22;3740;50.700;7.184;2022-11-04T16:22:34;13.60;99.90
7399;DHT22;3740;50.700;7.184;2022-11-04T16:25:07;13.50;99.90
7399;DHT22;3740;50.700;7.184;2022-11-04T16:27:36;13.40;99.90
7399;DHT22;3740;50.700;7.184;2022-11-04T16:30:07;13.30;99.90
7399;DHT22;3740;50.700;7.184;2022-11-04T16:32:44;13.30;99.90
7399;DHT22;3740;50.700;7.184;2022-11-04T16:35:19;13.30;99.90
7399;DHT22;3740;50.700;7.184;2022-11-04T16:37:46;13.10;99.90
7399;DHT22;3740;50.700;7.184;2022-11-04T16:40:12;13.00;99.90
7399;DHT22;3740;50.700;7.184;2022-11-04T16:42:40;12.90;99.90
7399;DHT22;3740;50.700;7.184;2022-11-04T16:45:07;12.80;99.90
7399;DHT22;3740;50.700;7.184;2022-11-04T16:47:40;12.80;99.90
7399;DHT22;3740;50.700;7.184;2022-11-04T16:50:12;12.70;99.90
7399;DHT22;3740;50.700;7.184;2022-11-04T16:52:39;12.60;99.90
7399;DHT22;3740;50.700;7.184;2022-11-04T16:55:05;12.60;99.90
7399;DHT22;3740;50.700;7.184;2022-11-04T16:57:31;12.40;99.90
7399;DHT22;3740;50.700;7.184;2022-11-04T16:59:57;12.20;99.90
7399;DHT22;3740;50.700;7.184;2022-11-04T17:02:28;12.00;99.90
7399;DHT22;3740;50.700;7.184;2022-11-04T17:04:59;12.10;99.90
7399;DHT22;3740;50.700;7.184;2022-11-04T17:07:24;12.20;99.90
7399;DHT22;3740;50.700;7.184;2022-11-04T17:09:50;12.30;99.90
7399;DHT22;3740;50.700;7.184;2022-11-04T17:12:16;12.30;99.90
7399;DHT22;3740;50.700;7.184;2022-11-04T17:14:41;12.20;99.90
7399;DHT22;3740;50.700;7.184;2022-11-04T17:17:08;12.10;99.90
7399;DHT22;3740;50.700;7.184;2022-11-04T17:19:34;12.20;99.90
7399;DHT22;3740;50.700;7.184;2022-11-04T17:22:00;12.30;99.90
7399;DHT22;3740;50.700;7.184;2022-11-04T17:24:28;12.30;99.90
7399;DHT22;3740;50.700;7.184;2022-11-04T17:26:53;12.40;99.90
7399;DHT22;3740;50.700;7.184;2022-11-04T17:29:19;12.30;99.90
7399;DHT22;3740;50.700;7.184;2022-11-04T17:31:44;12.20;99.90
7399;DHT22;3740;50.700;7.184;2022-11-04T17:34:10;12.30;99.90
7399;DHT22;3740;50.700;7.184;2022-11-04T17:36:36;12.50;99.90
7399;DHT22;3740;50.700;7.184;2022-11-04T17:39:02;12.50;99.90
7399;DHT22;3740;50.700;7.184;2022-11-04T17:41:27;12.60;99.90
7399;DHT22;3740;50.700;7.184;2022-11-04T17:44:11;12.50;99.90
7399;DHT22;3740;50.700;7.184;2022-11-04T17:46:37;12.50;99.90
7399;DHT22;3740;50.700;7.184;2022-11-04T17:49:04;12.50;99.90
7399;DHT22;3740;50.700;7.184;2022-11-04T17:51:30;12.60;99.90
7399;DHT22;3740;50.700;7.184;2022-11-04T17:53:56;12.60;99.90
7399;DHT22;3740;50.700;7.184;2022-11-04T17:56:23;12.60;99.90
7399;DHT22;3740;50.700;7.184;2022-11-04T17:58:51;12.70;99.90
7399;DHT22;3740;50.700;7.184;2022-11-04T18:01:19;12.60;99.90
7399;DHT22;3740;50.700;7.184;2022-11-04T18:03:45;12.60;99.90
7399;DHT22;3740;50.700;7.184;2022-11-04T18:06:12;12.50;99.90
7399;DHT22;3740;50.700;7.184;2022-11-04T18:08:38;12.40;99.90
7399;DHT22;3740;50.700;7.184;2022-11-04T18:11:06;12.40;99.90
7399;DHT22;3740;50.700;7.184;2022-11-04T18:13:33;12.50;99.90
7399;DHT22;3740;50.700;7.184;2022-11-04T18:16:12;12.50;99.90
7399;DHT22;3740;50.700;7.184;2022-11-04T18:18:38;12.40;99.90
7399;DHT22;3740;50.700;7.184;2022-11-04T18:21:06;12.20;99.90
7399;DHT22;3740;50.700;7.184;2022-11-04T18:23:32;12.00;99.90
7399;DHT22;3740;50.700;7.184;2022-11-04T18:25:57;11.80;99.90
7399;DHT22;3740;50.700;7.184;2022-11-04T18:28:23;11.70;99.90
7399;DHT22;3740;50.700;7.184;2022-11-04T18:30:49;11.60;99.90
7399;DHT22;3740;50.700;7.184;2022-11-04T18:33:14;11.60;99.90
7399;DHT22;3740;50.700;7.184;2022-11-04T18:35:40;11.90;99.90
7399;DHT22;3740;50.700;7.184;2022-11-04T18:38:05;12.10;99.90
7399;DHT22;3740;50.700;7.184;2022-11-04T18:40:31;12.30;99.90
7399;DHT22;3740;50.700;7.184;2022-11-04T18:42:57;12.30;99.90
7399;DHT22;3740;50.700;7.184;2022-11-04T18:45:23;12.20;99.90
7399;DHT22;3740;50.700;7.184;2022-11-04T18:47:48;12.20;99.90